createdAt,value
2023-09-15T00:17:58.272Z,25.10
2023-09-15T00:20:28.684Z,25.10
2023-09-15T00:22:57.928Z,25.20
2023-09-15T00:25:28.512Z,25.20
2023-09-15T00:27:59.007Z,25.10
2023-09-15T00:30:29.337Z,25.20
2023-09-15T00:32:59.598Z,25.20
2023-09-15T00:35:29.590Z,25.20
2023-09-15T00:37:58.356Z,25.20
2023-09-15T00:40:27.126Z,25.20
2023-09-15T00:42:55.636Z,25.20
2023-09-15T00:45:24.711Z,25.20
2023-09-15T00:47:57.159Z,25.20
2023-09-15T00:50:32.464Z,25.20
2023-09-15T00:53:06.938Z,25.20
2023-09-15T00:55:36.730Z,25.20
2023-09-15T00:58:12.083Z,25.20
2023-09-15T01:18:17.669Z,25.20
2023-09-15T01:21:31.267Z,25.10
2023-09-15T01:25:00.289Z,25.10
2023-09-15T01:27:56.273Z,25.20
2023-09-15T01:48:15.447Z,25.10
2023-09-15T01:50:44.668Z,25.10
2023-09-15T01:53:13.250Z,25.10
2023-09-15T01:55:42.883Z,25.10
2023-09-15T01:58:11.430Z,25.10
2023-09-15T02:16:31.459Z,25.10
2023-09-15T02:19:01.642Z,25.10
2023-09-15T02:21:30.877Z,25.10
2023-09-15T02:24:02.211Z,25.10
2023-09-15T02:26:32.702Z,25.10
2023-09-15T02:29:01.090Z,25.10
2023-09-15T02:47:21.202Z,25.10
2023-09-15T02:49:49.757Z,25.10
2023-09-15T02:52:18.239Z,25.20
2023-09-15T02:54:49.648Z,25.20
2023-09-15T02:57:18.039Z,25.20
2023-09-15T02:59:46.599Z,25.20
2023-09-15T03:17:59.372Z,25.10
2023-09-15T03:20:27.982Z,25.10
2023-09-15T03:22:57.419Z,25.00
2023-09-15T03:25:25.836Z,25.00
2023-09-15T03:27:54.572Z,25.00
2023-09-15T03:30:23.506Z,25.00
2023-09-15T03:32:52.309Z,25.00
2023-09-15T03:35:22.350Z,25.00
2023-09-15T03:37:50.783Z,25.00
2023-09-15T03:40:19.623Z,25.10
2023-09-15T03:42:48.490Z,25.00
2023-09-15T03:45:16.990Z,25.10
2023-09-15T03:47:45.503Z,25.10
2023-09-15T03:50:20.723Z,25.10
2023-09-15T03:52:50.758Z,25.10
2023-09-15T03:55:20.378Z,25.00
2023-09-15T03:57:50.810Z,25.10
2023-09-15T04:17:49.525Z,25.00
2023-09-15T04:20:27.848Z,25.00
2023-09-15T04:23:03.874Z,25.00
2023-09-15T04:25:32.261Z,25.00
2023-09-15T04:28:00.738Z,25.00
2023-09-15T04:30:29.283Z,25.00
2023-09-15T04:33:01.125Z,25.00
2023-09-15T04:35:30.689Z,25.00
2023-09-15T04:38:00.112Z,25.00
2023-09-15T04:40:29.903Z,25.00
2023-09-15T04:43:00.674Z,25.00
2023-09-15T04:45:31.128Z,25.00
2023-09-15T04:48:01.665Z,25.00
2023-09-15T04:50:30.617Z,25.00
2023-09-15T04:53:03.487Z,25.00
2023-09-15T04:55:32.094Z,25.00
2023-09-15T04:58:02.831Z,25.00
2023-09-15T05:00:35.610Z,25.00
2023-09-15T05:03:09.483Z,25.00
2023-09-15T05:05:38.259Z,25.00
2023-09-15T05:08:07.729Z,25.00
2023-09-15T05:10:36.787Z,25.00
2023-09-15T05:13:06.676Z,25.10
2023-09-15T05:15:36.677Z,25.10
2023-09-15T05:18:07.129Z,25.20
2023-09-15T05:20:35.935Z,25.30
2023-09-15T05:23:05.944Z,25.30
2023-09-15T05:25:36.139Z,25.30
2023-09-15T05:28:06.011Z,25.30
2023-09-15T05:30:34.982Z,25.30
2023-09-15T05:33:07.757Z,25.40
2023-09-15T05:35:38.588Z,25.30
2023-09-15T05:38:07.076Z,25.30
2023-09-15T05:40:35.999Z,25.30
2023-09-15T05:43:06.702Z,25.30
2023-09-15T05:45:35.186Z,25.30
2023-09-15T05:48:03.704Z,25.20
2023-09-15T05:50:32.261Z,25.20
2023-09-15T05:53:02.395Z,25.10
2023-09-15T05:55:30.881Z,25.10
2023-09-15T05:57:59.390Z,25.10
2023-09-15T06:00:27.984Z,25.10
2023-09-15T06:02:56.421Z,25.10
2023-09-15T06:05:26.322Z,25.10
2023-09-15T06:07:55.109Z,25.10
2023-09-15T06:10:25.024Z,25.10
2023-09-15T06:12:53.826Z,25.10
2023-09-15T06:15:22.984Z,25.10
2023-09-15T06:17:51.919Z,25.00
2023-09-15T06:20:20.543Z,25.00
2023-09-15T06:22:49.024Z,25.00
2023-09-15T06:25:17.717Z,25.00
2023-09-15T06:27:47.511Z,25.00
2023-09-15T06:30:16.165Z,25.00
2023-09-15T06:32:44.656Z,25.00
2023-09-15T06:35:14.355Z,25.00
2023-09-15T06:37:43.039Z,24.90
2023-09-15T06:40:13.388Z,24.90
2023-09-15T06:42:41.980Z,24.90
2023-09-15T06:45:13.080Z,24.90
2023-09-15T06:47:41.469Z,24.90
2023-09-15T06:50:10.313Z,24.90
2023-09-15T06:52:39.261Z,24.90
2023-09-15T06:55:08.396Z,25.00
2023-09-15T06:57:37.178Z,24.90
2023-09-15T07:00:07.665Z,25.00
2023-09-15T07:02:37.585Z,24.90
2023-09-15T07:05:06.812Z,24.90
2023-09-15T07:07:35.317Z,25.00
2023-09-15T07:10:03.978Z,25.00
2023-09-15T07:12:32.422Z,24.90
2023-09-15T07:15:02.017Z,24.90
2023-09-15T07:17:30.565Z,24.90
2023-09-15T07:20:00.560Z,24.90
2023-09-15T07:22:29.333Z,24.90
2023-09-15T07:24:57.754Z,24.90
2023-09-15T07:27:26.740Z,24.90
2023-09-15T07:29:55.313Z,24.90
2023-09-15T07:32:23.698Z,24.90
2023-09-15T07:34:52.448Z,24.90
2023-09-15T07:37:22.367Z,24.90
2023-09-15T07:39:50.813Z,24.90
2023-09-15T07:42:19.216Z,24.90
2023-09-15T07:44:47.646Z,24.90
2023-09-15T07:47:16.333Z,24.90
2023-09-15T07:49:44.777Z,24.90
2023-09-15T07:52:15.037Z,24.80
2023-09-15T07:54:47.431Z,24.80
2023-09-15T07:57:16.418Z,24.90
2023-09-15T07:59:44.804Z,24.80
2023-09-15T08:02:14.941Z,24.80
2023-09-15T08:04:44.364Z,24.90
2023-09-15T08:07:12.898Z,24.90
2023-09-15T08:09:41.423Z,24.90
2023-09-15T08:12:11.332Z,24.90
2023-09-15T08:14:41.233Z,24.90
2023-09-15T08:17:19.580Z,24.90
2023-09-15T08:19:56.415Z,25.00
2023-09-15T08:22:26.635Z,25.00
2023-09-15T08:24:56.230Z,25.00
2023-09-15T08:27:28.314Z,24.90
2023-09-15T08:29:56.987Z,24.90
2023-09-15T08:32:25.769Z,24.90
2023-09-15T08:34:55.159Z,24.90
2023-09-15T08:37:24.553Z,24.90
2023-09-15T08:39:53.407Z,24.80
2023-09-15T08:42:27.550Z,24.80
2023-09-15T08:44:57.514Z,24.80
2023-09-15T08:47:28.718Z,24.90
2023-09-15T08:49:58.336Z,24.90
2023-09-15T08:52:27.105Z,24.80
2023-09-15T08:54:56.893Z,24.80
2023-09-15T08:57:29.046Z,24.80
2023-09-15T08:59:58.124Z,24.80
2023-09-15T09:02:29.472Z,24.90
2023-09-15T09:04:57.982Z,24.90
2023-09-15T09:07:26.905Z,24.90
2023-09-15T09:09:56.776Z,24.90
2023-09-15T09:12:26.749Z,25.00
2023-09-15T09:14:57.478Z,25.00
2023-09-15T09:17:26.567Z,25.00
2023-09-15T09:19:55.009Z,24.90
2023-09-15T09:22:23.888Z,24.90
2023-09-15T09:24:59.748Z,24.90
2023-09-15T09:27:35.968Z,24.90
2023-09-15T09:30:05.573Z,24.90
2023-09-15T09:32:37.934Z,24.90
2023-09-15T09:35:06.941Z,24.90
2023-09-15T09:37:35.639Z,24.90
2023-09-15T09:40:04.287Z,24.90
2023-09-15T09:42:35.751Z,24.90
2023-09-15T09:45:05.292Z,24.90
2023-09-15T09:47:34.238Z,24.90
2023-09-15T09:50:06.679Z,24.80
2023-09-15T09:52:35.688Z,24.90
2023-09-15T09:55:06.037Z,24.90
2023-09-15T09:57:38.235Z,24.90
2023-09-15T10:00:11.098Z,24.90
2023-09-15T10:02:41.625Z,24.90
2023-09-15T10:05:10.422Z,24.90
2023-09-15T10:07:39.283Z,25.00
2023-09-15T10:10:10.207Z,24.90
2023-09-15T10:12:40.472Z,24.90
2023-09-15T10:15:12.171Z,24.90
2023-09-15T10:17:41.138Z,25.00
2023-09-15T10:20:11.955Z,25.00
2023-09-15T10:22:40.697Z,25.00
2023-09-15T10:25:18.227Z,25.00
2023-09-15T10:27:48.548Z,25.00
2023-09-15T10:30:18.031Z,25.00
2023-09-15T10:32:47.162Z,25.00
2023-09-15T10:35:17.937Z,25.00
2023-09-15T10:37:46.443Z,25.00
2023-09-15T10:40:15.389Z,25.10
2023-09-15T10:42:52.592Z,25.10
2023-09-15T10:45:21.497Z,25.10
2023-09-15T10:47:59.774Z,25.10
2023-09-15T10:50:36.063Z,25.10
2023-09-15T10:53:11.562Z,25.10
2023-09-15T10:55:41.881Z,25.10
2023-09-15T10:58:12.534Z,25.10
2023-09-15T11:00:41.569Z,25.10
2023-09-15T11:03:11.279Z,25.10
2023-09-15T11:05:39.896Z,25.10
2023-09-15T11:08:08.722Z,25.10
2023-09-15T11:10:37.743Z,25.10
2023-09-15T11:13:06.600Z,25.10
2023-09-15T11:15:36.350Z,25.10
2023-09-15T11:18:06.452Z,25.10
2023-09-15T11:20:35.079Z,25.10
2023-09-15T11:23:05.011Z,25.10
2023-09-15T11:25:34.916Z,25.10
2023-09-15T11:28:03.390Z,25.20
2023-09-15T11:30:33.224Z,25.20
2023-09-15T11:33:06.482Z,25.20
2023-09-15T11:35:35.997Z,25.00
2023-09-15T11:38:05.094Z,25.20
2023-09-15T11:40:34.880Z,25.20
2023-09-15T11:43:03.279Z,25.20
2023-09-15T11:45:33.457Z,25.20
2023-09-15T11:48:05.089Z,25.20
2023-09-15T11:50:34.920Z,25.20
2023-09-15T11:53:04.071Z,25.20
2023-09-15T11:55:33.382Z,25.20
2023-09-15T11:58:02.012Z,25.20
2023-09-15T12:00:31.983Z,25.20
2023-09-15T12:03:04.482Z,25.20
2023-09-15T12:05:33.151Z,25.20
2023-09-15T12:08:01.820Z,25.10
2023-09-15T12:10:30.700Z,25.10
2023-09-15T12:12:59.568Z,25.10
2023-09-15T12:15:29.698Z,25.10
2023-09-15T12:17:58.602Z,25.20
2023-09-15T12:20:28.758Z,25.20
2023-09-15T12:22:58.317Z,25.20
2023-09-15T12:25:28.079Z,25.20
2023-09-15T12:27:56.501Z,25.30
2023-09-15T12:30:25.006Z,25.30
2023-09-15T12:32:55.327Z,25.30
2023-09-15T12:35:25.888Z,25.30
2023-09-15T12:40:53.786Z,25.30
2023-09-15T12:43:22.187Z,25.30
2023-09-15T12:45:50.990Z,25.30
2023-09-15T12:48:19.483Z,25.30
2023-09-15T12:50:47.966Z,25.30
2023-09-15T12:53:16.377Z,25.30
2023-09-15T12:55:46.619Z,25.30
2023-09-15T12:58:19.704Z,25.30
2023-09-15T13:00:48.224Z,25.30
2023-09-15T13:03:17.039Z,25.30
2023-09-15T13:05:46.524Z,25.30
2023-09-15T13:08:14.939Z,25.30
2023-09-15T13:10:43.335Z,25.30
2023-09-15T13:13:12.107Z,25.30
2023-09-15T13:15:41.993Z,25.30
2023-09-15T13:18:13.207Z,25.30
2023-09-15T13:20:41.831Z,25.30
2023-09-15T13:23:10.592Z,25.30
2023-09-15T13:25:39.387Z,25.30
2023-09-15T13:28:07.875Z,25.30
2023-09-15T13:30:36.635Z,25.30
2023-09-15T13:33:07.469Z,25.30
2023-09-15T13:35:35.894Z,25.40
2023-09-15T13:38:05.078Z,25.40
2023-09-15T13:40:33.750Z,25.50
2023-09-15T13:43:02.168Z,25.50
2023-09-15T13:45:31.068Z,25.50
2023-09-15T13:47:59.717Z,25.40
2023-09-15T13:50:29.926Z,25.40
2023-09-15T13:52:58.679Z,25.30
2023-09-15T13:55:39.386Z,25.30
2023-09-15T13:58:17.105Z,25.40
2023-09-15T14:00:58.692Z,25.30
2023-09-15T14:03:27.803Z,25.40
2023-09-15T14:05:58.487Z,25.40
2023-09-15T14:08:27.401Z,25.40
2023-09-15T14:10:56.052Z,25.40
2023-09-15T14:13:24.662Z,25.40
2023-09-15T14:15:53.297Z,25.40
2023-09-15T14:18:22.433Z,25.40
2023-09-15T14:20:51.439Z,25.40
2023-09-15T14:23:21.171Z,25.40
2023-09-15T14:25:49.557Z,25.30
2023-09-15T14:28:18.521Z,25.40
2023-09-15T14:30:52.440Z,25.40
2023-09-15T14:33:21.983Z,25.30
2023-09-15T14:35:50.466Z,25.40
2023-09-15T14:38:20.344Z,25.40
2023-09-15T14:40:48.983Z,25.40
2023-09-15T14:43:17.429Z,25.40
2023-09-15T14:45:46.107Z,25.40
2023-09-15T14:48:17.283Z,25.40
2023-09-15T14:50:48.529Z,25.40
2023-09-15T14:53:16.958Z,25.40
2023-09-15T14:55:47.234Z,25.40
2023-09-15T14:58:15.683Z,25.40
2023-09-15T15:00:44.304Z,25.40
2023-09-15T15:03:12.999Z,25.40
2023-09-15T15:05:41.570Z,25.40
2023-09-15T15:08:10.571Z,25.40
2023-09-15T15:10:39.304Z,25.40
2023-09-15T15:13:09.392Z,25.40
2023-09-15T15:15:44.805Z,25.40
2023-09-15T15:18:20.357Z,25.40
2023-09-15T15:20:48.980Z,25.30
2023-09-15T15:23:17.539Z,25.30
2023-09-15T15:25:46.110Z,25.30
2023-09-15T15:28:17.159Z,25.30
2023-09-15T15:30:45.650Z,25.40
2023-09-15T15:33:14.117Z,25.40
2023-09-15T15:35:42.569Z,25.40
2023-09-15T15:38:11.052Z,25.40
2023-09-15T15:40:39.516Z,25.40
2023-09-15T15:43:07.923Z,25.40
2023-09-15T15:45:38.180Z,25.40
2023-09-15T15:48:06.857Z,25.30
2023-09-15T15:50:35.371Z,25.30
2023-09-15T15:53:04.812Z,25.30
2023-09-15T15:55:36.032Z,25.40
2023-09-15T15:58:04.971Z,25.30
2023-09-15T16:00:34.085Z,25.30
2023-09-15T16:03:04.902Z,25.30
2023-09-15T16:05:34.263Z,25.30
2023-09-15T16:08:03.070Z,25.30
2023-09-15T16:10:31.502Z,25.30
2023-09-15T16:13:00.299Z,25.30
2023-09-15T16:15:29.350Z,25.30
2023-09-15T16:18:10.483Z,25.30
2023-09-15T16:20:47.173Z,25.30
2023-09-15T16:23:17.143Z,25.30
2023-09-15T16:25:45.731Z,25.30
2023-09-15T16:28:14.239Z,25.30
2023-09-15T16:30:45.367Z,25.30
2023-09-15T16:33:14.664Z,25.30
2023-09-15T16:35:45.936Z,25.30
2023-09-15T16:38:14.372Z,25.30
2023-09-15T16:40:43.156Z,25.30
2023-09-15T16:43:14.249Z,25.30
2023-09-15T16:45:42.670Z,25.30
2023-09-15T16:48:11.269Z,25.30
2023-09-15T16:50:39.671Z,25.20
2023-09-15T16:53:09.698Z,25.30
2023-09-15T16:55:38.496Z,25.30
2023-09-15T16:58:06.861Z,25.30
2023-09-15T17:00:35.403Z,25.20
2023-09-15T17:03:03.855Z,25.20
2023-09-15T17:05:32.219Z,25.20
2023-09-15T17:08:01.846Z,25.20
2023-09-15T17:10:31.890Z,25.20
2023-09-15T17:13:00.417Z,25.20
2023-09-15T17:15:30.604Z,25.30
2023-09-15T17:17:59.477Z,25.20
2023-09-15T17:20:28.382Z,25.20
2023-09-15T17:22:56.933Z,25.20
2023-09-15T17:25:26.912Z,25.20
2023-09-15T17:27:57.264Z,25.20
2023-09-15T17:30:25.834Z,25.20
2023-09-15T17:32:54.544Z,25.20
2023-09-15T17:35:22.962Z,25.20
2023-09-15T17:37:51.881Z,25.20
2023-09-15T17:40:21.476Z,25.20
2023-09-15T17:42:50.350Z,25.20
2023-09-15T17:45:22.770Z,25.20
2023-09-15T17:47:51.486Z,25.20
2023-09-15T17:50:20.254Z,25.20
2023-09-15T17:52:50.734Z,25.20
2023-09-15T17:55:20.396Z,25.20
2023-09-15T17:57:51.225Z,25.10
2023-09-15T18:00:22.658Z,25.10
2023-09-15T18:02:51.237Z,25.20
2023-09-15T18:05:19.995Z,25.20
2023-09-15T18:07:48.570Z,25.20
2023-09-15T18:10:17.378Z,25.20
2023-09-15T18:12:47.172Z,25.10
2023-09-15T18:15:16.182Z,25.10
2023-09-15T18:17:46.401Z,25.20
2023-09-15T18:20:14.826Z,25.10
2023-09-15T18:22:43.472Z,25.20
2023-09-15T18:25:13.230Z,25.10
2023-09-15T18:27:43.577Z,25.20
2023-09-15T18:30:13.984Z,25.10
2023-09-15T18:32:42.481Z,25.10
2023-09-15T18:35:12.917Z,25.10
2023-09-15T18:37:41.374Z,25.10
2023-09-15T18:40:11.143Z,25.10
2023-09-15T18:42:40.454Z,25.10
2023-09-15T18:45:10.205Z,25.10
2023-09-15T18:47:38.728Z,25.20
2023-09-15T18:50:08.766Z,25.20
2023-09-15T18:52:39.058Z,25.20
2023-09-15T18:55:08.430Z,25.10
2023-09-15T18:57:38.786Z,25.10
2023-09-15T19:00:09.378Z,25.10
2023-09-15T19:02:38.522Z,25.10
2023-09-15T19:05:09.275Z,25.10
2023-09-15T19:07:39.081Z,25.10
2023-09-15T19:10:09.030Z,25.10
2023-09-15T19:12:37.488Z,25.00
2023-09-15T19:15:07.370Z,25.10
2023-09-15T19:17:35.829Z,25.10
2023-09-15T19:20:04.834Z,25.10
2023-09-15T19:22:33.387Z,25.00
2023-09-15T19:25:06.138Z,25.00
2023-09-15T19:27:35.990Z,25.00
2023-09-15T19:30:05.161Z,25.00
2023-09-15T19:32:34.917Z,25.10
2023-09-15T19:35:03.516Z,25.00
2023-09-15T19:37:32.104Z,25.10
2023-09-15T19:40:02.003Z,25.10
2023-09-15T19:42:31.122Z,25.10
2023-09-15T19:44:59.606Z,25.10
2023-09-15T19:47:28.084Z,25.10
2023-09-15T19:49:56.584Z,25.10
2023-09-15T19:52:26.691Z,25.10
2023-09-15T19:54:55.229Z,25.10
2023-09-15T19:57:26.938Z,25.10
2023-09-15T19:59:55.495Z,25.10
2023-09-15T20:02:23.938Z,25.10
2023-09-15T20:04:56.282Z,25.00
2023-09-15T20:07:24.825Z,25.00
2023-09-15T20:09:53.618Z,25.00
2023-09-15T20:12:22.532Z,25.00
2023-09-15T20:14:56.237Z,25.00
2023-09-15T20:17:28.012Z,25.00
2023-09-15T20:19:56.725Z,25.00
2023-09-15T20:22:25.128Z,25.00
2023-09-15T20:24:54.281Z,25.00
2023-09-15T20:27:22.869Z,25.00
2023-09-15T20:29:55.446Z,25.00
2023-09-15T20:32:23.957Z,25.00
2023-09-15T20:34:52.654Z,25.10
2023-09-15T20:37:21.032Z,25.10
2023-09-15T20:39:49.631Z,25.10
2023-09-15T20:42:19.371Z,25.10
2023-09-15T20:44:48.250Z,25.10
2023-09-15T20:47:18.485Z,25.10
2023-09-15T20:49:48.509Z,25.10
2023-09-15T20:52:17.170Z,25.10
2023-09-15T20:54:46.182Z,25.00
2023-09-15T20:57:15.104Z,25.00
2023-09-15T20:59:43.444Z,25.00
2023-09-15T21:02:11.820Z,25.00
2023-09-15T21:04:41.646Z,25.00
2023-09-15T21:07:10.028Z,25.00
2023-09-15T21:09:38.523Z,25.00
2023-09-15T21:12:07.677Z,24.90
2023-09-15T21:14:36.292Z,24.90
2023-09-15T21:17:04.765Z,25.00
2023-09-15T21:19:33.164Z,25.00
2023-09-15T21:22:03.117Z,25.00
2023-09-15T21:24:31.626Z,25.00
2023-09-15T21:27:00.634Z,25.00
2023-09-15T21:29:29.424Z,25.00
2023-09-15T21:31:58.436Z,25.00
2023-09-15T21:34:27.333Z,25.00
2023-09-15T21:36:56.570Z,25.00
2023-09-15T21:39:26.525Z,25.00
2023-09-15T21:41:55.077Z,25.00
2023-09-15T21:44:24.523Z,25.00
2023-09-15T21:46:52.949Z,25.00
2023-09-15T21:49:22.131Z,25.00
2023-09-15T21:51:50.623Z,25.00
2023-09-15T21:54:19.215Z,25.00
2023-09-15T21:56:49.015Z,25.00
2023-09-15T21:59:17.630Z,25.00
2023-09-15T22:01:46.569Z,24.90
2023-09-15T22:04:16.415Z,24.90
2023-09-15T22:06:45.540Z,25.00
2023-09-15T22:09:15.428Z,25.00
2023-09-15T22:11:43.981Z,25.00
2023-09-15T22:14:13.884Z,25.00
2023-09-15T22:16:42.855Z,25.00
2023-09-15T22:19:12.152Z,25.00
2023-09-15T22:21:41.596Z,25.00
2023-09-15T22:24:10.534Z,24.90
2023-09-15T22:26:39.272Z,25.00
2023-09-15T22:29:08.058Z,25.00
2023-09-15T22:31:38.992Z,25.00
2023-09-15T22:34:08.199Z,25.00
2023-09-15T22:36:36.864Z,25.00
2023-09-15T22:39:10.409Z,24.90
2023-09-15T22:41:39.815Z,25.00
2023-09-15T22:44:08.302Z,25.00
2023-09-15T22:46:39.388Z,25.00
2023-09-15T22:49:13.250Z,25.00
2023-09-15T22:51:43.575Z,25.00
2023-09-15T22:54:12.193Z,24.90
2023-09-15T22:56:41.614Z,25.00
2023-09-15T22:59:10.088Z,25.00
2023-09-15T23:17:29.901Z,24.90
2023-09-15T23:19:58.323Z,24.90
2023-09-15T23:22:26.868Z,24.90
2023-09-15T23:24:56.106Z,24.90
2023-09-15T23:27:24.635Z,24.90
2023-09-15T23:29:53.265Z,24.90
2023-09-15T23:32:21.867Z,24.90
2023-09-15T23:34:51.742Z,24.90
2023-09-15T23:37:20.387Z,24.90
2023-09-15T23:39:49.425Z,24.90
2023-09-15T23:42:17.894Z,24.90
2023-09-15T23:44:46.324Z,24.90
2023-09-15T23:47:16.697Z,25.00
2023-09-15T23:49:45.723Z,25.00
2023-09-15T23:52:15.497Z,25.00
2023-09-15T23:54:43.947Z,25.00
2023-09-15T23:57:12.389Z,25.00
2023-09-15T23:59:40.825Z,25.00
